Time;durP1;ratioP1;P1;durP2;ratioP2;P2;SDS_P1;SDS_P2;PMS_P1;PMS_P2;Temp;Humidity;BMP_temperature;BMP_pressure;BME280_temperature;BME280_humidity;BME280_pressure;Samples;Min_cycle;Max_cycle;Signal;HPM_P1;HPM_P2
2023/10/04 00:01:46;;;;;;;3.90;2.50;;;;;;;15.21;100.00;99221.23;109640;1250;66152;-69
2023/10/04 00:04:13;;;;;;;4.30;2.60;;;;;;;15.18;100.00;99239.42;109673;1250;59904;-69
2023/10/04 00:06:41;;;;;;;5.10;2.60;;;;;;;15.14;100.00;99254.41;109630;1250;63742;-69
2023/10/04 00:09:09;;;;;;;3.70;2.60;;;;;;;15.11;100.00;99253.02;109605;1250;59087;-70
2023/10/04 00:11:36;;;;;;;6.10;3.30;;;;;;;15.08;100.00;99256.15;109578;1250;59007;-69
2023/10/04 00:14:03;;;;;;;7.00;2.80;;;;;;;15.04;100.00;99253.79;109642;1250;64626;-70
2023/10/04 00:16:32;;;;;;;4.30;3.00;;;;;;;15.01;100.00;99252.30;109682;1250;59825;-69
2023/10/04 00:18:58;;;;;;;5.70;2.40;;;;;;;14.96;100.00;99258.23;109626;1250;65071;-69
2023/10/04 00:21:25;;;;;;;4.70;2.80;;;;;;;14.90;100.00;99263.85;109525;1250;58989;-69
2023/10/04 00:23:51;;;;;;;5.30;2.40;;;;;;;14.86;100.00;99269.21;109637;1250;58963;-69
2023/10/04 00:26:18;;;;;;;5.20;2.80;;;;;;;14.81;100.00;99271.73;109539;1250;59018;-69
2023/10/04 00:28:45;;;;;;;4.90;2.70;;;;;;;14.77;100.00;99270.27;109687;1250;60178;-70
2023/10/04 00:31:13;;;;;;;5.60;3.20;;;;;;;14.73;100.00;99271.00;109662;1250;65219;-69
2023/10/04 00:33:40;;;;;;;5.00;2.50;;;;;;;14.69;100.00;99274.34;109646;1250;58951;-69
2023/10/04 00:36:08;;;;;;;4.10;3.00;;;;;;;14.66;100.00;99280.46;109633;1250;59251;-70
2023/10/04 00:38:34;;;;;;;4.20;2.70;;;;;;;14.64;100.00;99287.77;109639;1250;66068;-69
2023/10/04 00:41:00;;;;;;;7.30;3.10;;;;;;;14.60;100.00;99296.85;109567;1249;59526;-69
2023/10/04 00:43:27;;;;;;;5.10;3.30;;;;;;;14.57;100.00;99307.85;109619;1250;59038;-69
2023/10/04 00:45:54;;;;;;;4.80;2.80;;;;;;;14.55;100.00;99320.88;109617;1250;58928;-69
2023/10/04 00:48:29;;;;;;;5.30;3.20;;;;;;;14.55;100.00;99327.12;109669;1250;59053;-70
2023/10/04 00:50:59;;;;;;;5.20;3.10;;;;;;;14.56;100.00;99334.36;109646;1250;66074;-70
2023/10/04 00:53:26;;;;;;;5.10;3.00;;;;;;;14.58;100.00;99350.52;109676;1250;61047;-69
2023/10/04 00:55:55;;;;;;;5.20;2.70;;;;;;;14.59;100.00;99355.20;109652;1250;62695;-69
2023/10/04 00:58:21;;;;;;;5.10;3.00;;;;;;;14.62;100.00;99366.45;109544;1250;58999;-70
2023/10/04 01:00:48;;;;;;;5.90;3.50;;;;;;;14.65;100.00;99373.67;109692;1250;58974;-70
2023/10/04 01:03:15;;;;;;;5.40;3.30;;;;;;;14.67;100.00;99381.77;109651;1250;66081;-69
2023/10/04 01:05:47;;;;;;;6.60;5.20;;;;;;;14.69;100.00;99388.06;109651;1250;60116;-69
2023/10/04 01:08:15;;;;;;;8.40;5.70;;;;;;;14.71;100.00;99390.61;109541;1250;62494;-69
2023/10/04 01:10:44;;;;;;;7.20;5.40;;;;;;;14.71;100.00;99391.09;109661;1250;58930;-68
2023/10/04 01:13:11;;;;;;;5.70;3.50;;;;;;;14.70;100.00;99390.14;109460;1250;59328;-69
2023/10/04 01:15:39;;;;;;;4.50;2.90;;;;;;;14.68;100.00;99387.75;109672;1250;64525;-69
2023/10/04 01:18:09;;;;;;;4.90;2.40;;;;;;;14.67;100.00;99391.58;109705;1250;59085;-69
2023/10/04 01:20:38;;;;;;;3.70;2.60;;;;;;;14.66;100.00;99398.28;109454;1250;65141;-69
2023/10/04 01:23:06;;;;;;;5.30;2.90;;;;;;;14.65;100.00;99405.73;109633;1250;59381;-69
2023/10/04 01:25:35;;;;;;;4.10;2.20;;;;;;;14.63;100.00;99417.09;109706;1250;58990;-69
2023/10/04 01:28:11;;;;;;;5.50;2.90;;;;;;;14.62;100.00;99421.84;109660;1250;64752;-69
2023/10/04 01:30:39;;;;;;;5.40;2.80;;;;;;;14.61;100.00;99427.86;109650;1250;58963;-69
2023/10/04 01:33:10;;;;;;;3.50;2.40;;;;;;;14.59;100.00;99429.80;109696;1250;62822;-69
2023/10/04 01:35:38;;;;;;;3.50;2.20;;;;;;;14.58;100.00;99434.34;109660;1250;59243;-70
2023/10/04 01:38:06;;;;;;;3.70;2.50;;;;;;;14.56;100.00;99440.91;109373;1250;59023;-69
2023/10/04 01:40:35;;;;;;;3.90;2.70;;;;;;;14.55;100.00;99443.71;109615;1249;66065;-69
2023/10/04 01:43:17;;;;;;;3.90;2.90;;;;;;;14.53;100.00;99448.88;109667;1249;60143;-69
2023/10/04 01:45:47;;;;;;;4.40;1.80;;;;;;;14.50;100.00;99454.03;109665;1250;63767;-70
2023/10/04 01:48:20;;;;;;;2.60;1.70;;;;;;;14.47;100.00;99457.80;109627;1250;59012;-70
2023/10/04 01:50:52;;;;;;;2.30;1.70;;;;;;;14.44;100.00;99460.89;109644;1254;59022;-70
2023/10/04 01:53:21;;;;;;;8.00;1.90;;;;;;;14.41;100.00;99469.36;109641;1250;64972;-70
2023/10/04 01:55:47;;;;;;;3.10;1.50;;;;;;;14.38;100.00;99477.44;109678;1254;60995;-70
2023/10/04 01:58:15;;;;;;;3.10;2.10;;;;;;;14.35;100.00;99476.98;109626;1250;64166;-70
2023/10/04 02:00:42;;;;;;;4.20;1.70;;;;;;;14.33;100.00;99476.45;109668;1250;58976;-70
2023/10/04 02:03:09;;;;;;;3.90;1.70;;;;;;;14.29;100.00;99476.70;109682;1250;59042;-70
2023/10/04 02:05:40;;;;;;;2.80;1.80;;;;;;;14.26;100.00;99474.76;109637;1250;65951;-70
2023/10/04 02:08:12;;;;;;;2.70;1.50;;;;;;;14.23;100.00;99478.42;109664;1250;58974;-70
2023/10/04 02:10:41;;;;;;;2.50;1.40;;;;;;;14.21;100.00;99486.98;109634;1250;63917;-70
2023/10/04 02:13:11;;;;;;;2.80;1.80;;;;;;;14.19;100.00;99502.11;109673;1250;59132;-70
2023/10/04 02:15:39;;;;;;;3.80;1.80;;;;;;;14.18;100.00;99508.42;109684;1250;59008;-70
2023/10/04 02:18:05;;;;;;;2.70;1.70;;;;;;;14.17;100.00;99516.00;109631;1250;66102;-70
2023/10/04 02:20:33;;;;;;;2.20;1.40;;;;;;;14.16;100.00;99516.11;109653;1250;58996;-70
2023/10/04 02:23:00;;;;;;;2.90;1.60;;;;;;;14.14;100.00;99521.98;109663;1250;64072;-71
2023/10/04 02:25:27;;;;;;;4.70;1.90;;;;;;;14.12;100.00;99519.79;109696;1250;58922;-70
2023/10/04 02:27:59;;;;;;;3.40;1.80;;;;;;;14.11;100.00;99527.91;109663;1250;59121;-70
2023/10/04 02:30:26;;;;;;;2.70;1.50;;;;;;;14.09;100.00;99537.94;109432;1250;64859;-71
2023/10/04 02:32:53;;;;;;;3.20;1.70;;;;;;;14.07;100.00;99547.15;109699;1250;59201;-70
2023/10/04 02:35:27;;;;;;;2.60;1.90;;;;;;;14.05;100.00;99553.14;109458;1250;64163;-70
2023/10/04 02:38:09;;;;;;;2.50;1.90;;;;;;;14.03;100.00;99553.83;109601;1250;59323;-71
2023/10/04 02:40:37;;;;;;;2.40;1.70;;;;;;;14.01;100.00;99557.76;109498;1250;59135;-71
2023/10/04 02:43:04;;;;;;;2.20;1.60;;;;;;;13.98;100.00;99563.14;109644;1250;64873;-71
2023/10/04 02:45:30;;;;;;;3.50;1.70;;;;;;;13.96;100.00;99563.45;109682;1250;59001;-70
2023/10/04 02:47:57;;;;;;;4.10;2.00;;;;;;;13.93;100.00;99564.02;109609;1250;58997;-71
2023/10/04 02:50:24;;;;;;;1.90;1.50;;;;;;;13.91;100.00;99568.14;109678;1250;58935;-69
2023/10/04 02:52:51;;;;;;;4.40;2.00;;;;;;;13.89;100.00;99572.91;109707;1250;59001;-70
2023/10/04 02:55:19;;;;;;;3.80;1.80;;;;;;;13.86;100.00;99577.42;109614;1250;66016;-70
2023/10/04 02:57:49;;;;;;;2.40;1.70;;;;;;;13.83;100.00;99586.71;109639;1250;60024;-70
2023/10/04 03:00:16;;;;;;;2.70;1.80;;;;;;;13.80;100.00;99594.40;109636;1250;62821;-70
2023/10/04 03:02:48;;;;;;;3.20;2.00;;;;;;;13.78;100.00;99599.38;109291;1250;59015;-71
2023/10/04 03:05:18;;;;;;;4.20;2.00;;;;;;;13.76;100.00;99599.02;109694;1250;59108;-70
2023/10/04 03:07:50;;;;;;;2.80;2.10;;;;;;;13.73;100.00;99601.33;109686;1250;65891;-70
2023/10/04 03:10:24;;;;;;;4.20;2.10;;;;;;;13.71;100.00;99604.71;109668;1250;59089;-70
2023/10/04 03:13:00;;;;;;;3.90;2.00;;;;;;;13.68;100.00;99602.39;109646;1250;62899;-70
2023/10/04 03:15:28;;;;;;;3.70;1.90;;;;;;;13.66;100.00;99604.73;109660;1250;58939;-70
2023/10/04 03:17:57;;;;;;;5.00;1.90;;;;;;;13.60;100.00;99611.35;109704;1250;59036;-70
2023/10/04 03:20:24;;;;;;;2.50;1.40;;;;;;;13.55;100.00;99614.94;109651;1250;66140;-70
2023/10/04 03:22:55;;;;;;;3.20;1.60;;;;;;;13.50;100.00;99619.71;109656;1250;59163;-71
2023/10/04 03:25:26;;;;;;;2.90;1.40;;;;;;;13.47;100.00;99617.09;109633;1250;72921;-71
2023/10/04 03:27:53;;;;;;;3.00;1.60;;;;;;;13.46;100.00;99620.73;109658;1250;59034;-71
2023/10/04 03:30:20;;;;;;;2.50;1.70;;;;;;;13.45;100.00;99619.75;109625;1250;58980;-71
2023/10/04 03:32:52;;;;;;;2.70;1.60;;;;;;;13.44;100.00;99626.06;109645;1250;64547;-71
2023/10/04 03:35:24;;;;;;;2.50;1.70;;;;;;;13.43;100.00;99630.77;109632;1250;60240;-71
2023/10/04 03:37:54;;;;;;;5.70;2.00;;;;;;;13.43;100.00;99637.20;109634;1250;62918;-71
2023/10/04 03:40:22;;;;;;;4.90;1.80;;;;;;;13.42;100.00;99642.79;109632;1250;58984;-70
2023/10/04 03:42:49;;;;;;;3.00;1.80;;;;;;;13.41;100.00;99642.13;109586;1250;59067;-70
2023/10/04 03:45:18;;;;;;;3.30;1.90;;;;;;;13.42;100.00;99647.94;109674;1250;65710;-70
2023/10/04 03:47:45;;;;;;;3.90;2.10;;;;;;;13.44;100.00;99654.83;109482;1254;60958;-70
2023/10/04 03:50:12;;;;;;;2.60;2.00;;;;;;;13.44;100.00;99659.29;109479;1253;62611;-70
2023/10/04 03:52:39;;;;;;;3.50;1.70;;;;;;;13.42;100.00;99662.27;109483;1254;59054;-70
2023/10/04 03:55:06;;;;;;;4.30;2.40;;;;;;;13.39;100.00;99668.15;109098;1254;59334;-70
2023/10/04 03:57:33;;;;;;;4.70;2.20;;;;;;;13.36;100.00;99673.20;109128;1254;65741;-70
2023/10/04 04:00:06;;;;;;;3.80;1.90;;;;;;;13.34;100.00;99679.06;109552;1254;59066;-70
2023/10/04 04:02:33;;;;;;;3.30;2.00;;;;;;;13.31;100.00;99683.72;109382;1254;62573;-71
2023/10/04 04:04:59;;;;;;;4.50;2.20;;;;;;;13.28;100.00;99688.36;109472;1252;59315;-71
2023/10/04 04:07:26;;;;;;;3.20;1.90;;;;;;;13.25;100.00;99690.30;109487;1253;59121;-70
2023/10/04 04:09:53;;;;;;;5.40;2.40;;;;;;;13.24;100.00;99700.92;109478;1253;66283;-71
2023/10/04 04:12:21;;;;;;;6.10;2.40;;;;;;;13.23;100.00;99707.27;109488;1254;59064;-71
2023/10/04 04:14:48;;;;;;;6.70;2.50;;;;;;;13.21;100.00;99711.27;109080;1254;62891;-70
2023/10/04 04:17:15;;;;;;;5.70;2.30;;;;;;;13.20;100.00;99714.57;109511;1254;58986;-69
2023/10/04 04:19:42;;;;;;;6.10;2.30;;;;;;;13.19;100.00;99709.61;109639;1250;59024;-69
2023/10/04 04:22:08;;;;;;;3.70;2.20;;;;;;;13.16;100.00;99704.79;109595;1254;64559;-70
2023/10/04 04:24:35;;;;;;;5.70;2.50;;;;;;;13.14;100.00;99709.03;109693;1250;58909;-71
2023/10/04 04:27:03;;;;;;;8.50;2.30;;;;;;;13.12;100.00;99707.20;109612;1250;62829;-71
2023/10/04 04:29:29;;;;;;;5.50;1.70;;;;;;;13.11;100.00;99713.39;109697;1250;59070;-71
2023/10/04 04:31:56;;;;;;;5.40;2.30;;;;;;;13.09;100.00;99716.73;109672;1250;58841;-71
2023/10/04 04:34:25;;;;;;;6.40;2.40;;;;;;;13.07;100.00;99714.52;109737;1250;64977;-70
2023/10/04 04:36:52;;;;;;;5.10;2.00;;;;;;;13.05;100.00;99713.89;109744;1250;58958;-71
2023/10/04 04:39:18;;;;;;;5.40;2.10;;;;;;;13.03;100.00;99719.23;109717;1253;59067;-71
2023/10/04 04:41:46;;;;;;;8.40;2.20;;;;;;;12.99;100.00;99723.77;109668;1250;58939;-70
2023/10/04 04:44:20;;;;;;;5.50;2.40;;;;;;;12.96;100.00;99729.18;109713;1250;59022;-71
2023/10/04 04:46:47;;;;;;;6.20;2.20;;;;;;;12.92;100.00;99727.41;109494;1250;66335;-71
2023/10/04 04:49:14;;;;;;;5.30;2.10;;;;;;;12.92;100.00;99730.65;109744;1249;60247;-71
2023/10/04 04:51:40;;;;;;;2.90;1.70;;;;;;;12.90;100.00;99731.65;109725;1250;59056;-71
2023/10/04 04:54:07;;;;;;;5.10;2.20;;;;;;;12.89;100.00;99735.67;109754;1250;58947;-72
2023/10/04 04:56:34;;;;;;;6.10;2.60;;;;;;;12.88;100.00;99736.63;109748;1253;59097;-71
2023/10/04 04:59:07;;;;;;;4.40;2.30;;;;;;;12.87;100.00;99740.23;109774;1250;66057;-71
2023/10/04 05:01:34;;;;;;;7.80;2.40;;;;;;;12.88;100.00;99747.52;109753;1251;59880;-71
2023/10/04 05:04:04;;;;;;;8.00;2.00;;;;;;;12.88;100.00;99750.74;109533;1249;64149;-72
2023/10/04 05:06:31;;;;;;;6.30;2.00;;;;;;;12.87;100.00;99750.25;109702;1250;59046;-70
2023/10/04 05:08:58;;;;;;;5.80;2.10;;;;;;;12.87;100.00;99756.65;109777;1249;59030;-70
2023/10/04 05:11:25;;;;;;;5.40;2.10;;;;;;;12.87;100.00;99761.11;109717;1250;65765;-71
2023/10/04 05:13:55;;;;;;;3.40;2.20;;;;;;;12.87;100.00;99762.00;109712;1251;58952;-71
2023/10/04 05:16:21;;;;;;;7.20;2.50;;;;;;;12.86;100.00;99762.05;109495;1257;64556;-71
2023/10/04 05:18:48;;;;;;;8.90;1.90;;;;;;;12.86;100.00;99761.40;109722;1250;58957;-71
2023/10/04 05:21:15;;;;;;;4.30;2.00;;;;;;;12.85;100.00;99762.70;109680;1249;58856;-71
2023/10/04 05:23:42;;;;;;;7.80;2.40;;;;;;;12.82;100.00;99766.79;109693;1250;65733;-71
2023/10/04 05:26:08;;;;;;;9.50;2.70;;;;;;;12.79;100.00;99768.95;109705;1250;60198;-71
2023/10/04 05:28:35;;;;;;;5.60;2.20;;;;;;;12.74;100.00;99779.23;109693;1249;62536;-72
2023/10/04 05:31:03;;;;;;;4.80;2.30;;;;;;;12.69;100.00;99780.80;109673;1251;58958;-72
2023/10/04 05:33:30;;;;;;;6.30;2.10;;;;;;;12.65;100.00;99790.34;109753;1250;59093;-72
2023/10/04 05:36:00;;;;;;;4.60;1.80;;;;;;;12.65;100.00;99795.53;109713;1250;66079;-71
2023/10/04 05:38:28;;;;;;;7.90;2.10;;;;;;;12.65;100.00;99799.59;109775;1251;58971;-71
2023/10/04 05:40:55;;;;;;;5.50;2.20;;;;;;;12.64;100.00;99800.88;109716;1249;64117;-71
2023/10/04 05:43:21;;;;;;;5.70;2.40;;;;;;;12.65;100.00;99802.80;109550;1251;59080;-71
2023/10/04 05:45:48;;;;;;;6.00;2.80;;;;;;;12.67;100.00;99812.46;109751;1250;58847;-71
2023/10/04 05:48:19;;;;;;;6.80;2.30;;;;;;;12.76;100.00;99817.63;109706;1251;64666;-71
2023/10/04 05:50:50;;;;;;;6.00;2.20;;;;;;;12.86;100.00;99821.27;109740;1251;59018;-71
2023/10/04 05:53:20;;;;;;;4.20;2.90;;;;;;;12.94;100.00;99825.77;109730;1250;63763;-71
2023/10/04 05:55:47;;;;;;;5.40;2.40;;;;;;;13.02;100.00;99823.45;109695;1250;59353;-71
2023/10/04 05:58:16;;;;;;;7.70;2.90;;;;;;;13.11;100.00;99821.45;109745;1249;59102;-71
2023/10/04 06:00:46;;;;;;;8.80;3.10;;;;;;;13.19;100.00;99830.44;109702;1251;64404;-71
2023/10/04 06:03:13;;;;;;;6.00;3.10;;;;;;;13.23;100.00;99835.14;109789;1250;59954;-71
2023/10/04 06:05:41;;;;;;;6.00;2.80;;;;;;;13.19;100.00;99837.02;109666;1250;64476;-71
2023/10/04 06:08:16;;;;;;;6.30;2.50;;;;;;;13.15;100.00;99832.64;109539;1250;59016;-71
2023/10/04 06:10:43;;;;;;;7.40;2.60;;;;;;;13.19;100.00;99837.55;109691;1251;59370;-71
2023/10/04 06:13:13;;;;;;;5.10;2.00;;;;;;;13.24;100.00;99835.83;109674;1251;65720;-71
2023/10/04 06:15:48;;;;;;;6.50;2.30;;;;;;;13.28;100.00;99839.84;109742;1250;59715;-71
2023/10/04 06:18:19;;;;;;;4.80;2.10;;;;;;;13.35;100.00;99845.30;109730;1249;64092;-71
2023/10/04 06:20:45;;;;;;;4.10;2.60;;;;;;;13.40;100.00;99847.47;109754;1250;59009;-71
2023/10/04 06:23:17;;;;;;;4.00;2.30;;;;;;;13.45;100.00;99843.95;109736;1250;59032;-71
2023/10/04 06:25:45;;;;;;;4.20;2.00;;;;;;;13.51;100.00;99845.54;109755;1249;66011;-71
2023/10/04 06:28:12;;;;;;;6.20;2.10;;;;;;;13.56;100.00;99848.56;109774;1249;59950;-71
2023/10/04 06:30:40;;;;;;;4.60;2.00;;;;;;;13.63;100.00;99855.80;109521;1250;62815;-71
2023/10/04 06:33:08;;;;;;;6.60;2.60;;;;;;;13.68;100.00;99858.55;109748;1250;59063;-71
2023/10/04 06:35:37;;;;;;;5.60;2.20;;;;;;;13.74;100.00;99862.77;109713;1250;59304;-71
2023/10/04 06:38:06;;;;;;;4.60;2.50;;;;;;;13.86;100.00;99865.20;109710;1251;64531;-71
2023/10/04 06:40:34;;;;;;;4.60;1.80;;;;;;;14.09;100.00;99868.80;109753;1251;60866;-71
2023/10/04 06:43:05;;;;;;;4.90;2.10;;;;;;;14.23;100.00;99869.64;109694;1250;63018;-71
2023/10/04 06:45:34;;;;;;;7.70;2.70;;;;;;;14.27;100.00;99869.40;109571;1250;58970;-71
2023/10/04 06:48:03;;;;;;;6.20;1.90;;;;;;;14.29;100.00;99869.42;109754;1251;58916;-71
2023/10/04 06:50:35;;;;;;;5.10;1.60;;;;;;;14.32;100.00;99871.52;109712;1251;66106;-72
2023/10/04 06:53:03;;;;;;;5.30;2.20;;;;;;;14.40;100.00;99872.58;109745;1249;59146;-72
2023/10/04 06:55:31;;;;;;;3.70;1.90;;;;;;;14.50;100.00;99869.40;109695;1249;64272;-72
2023/10/04 06:57:59;;;;;;;4.90;1.90;;;;;;;14.65;100.00;99869.81;109738;1249;58931;-72
2023/10/04 07:00:30;;;;;;;7.10;1.90;;;;;;;14.82;100.00;99871.52;109738;1251;58889;-72
2023/10/04 07:02:58;;;;;;;3.20;1.70;;;;;;;14.91;100.00;99873.50;109764;1251;67570;-72
2023/10/04 07:05:29;;;;;;;3.90;1.70;;;;;;;14.98;100.00;99874.51;109748;1251;59001;-72
2023/10/04 07:07:59;;;;;;;3.80;2.00;;;;;;;14.99;100.00;99869.05;109742;1250;65197;-70
2023/10/04 07:10:27;;;;;;;4.40;1.60;;;;;;;15.00;100.00;99862.16;109664;1249;58950;-69
2023/10/04 07:12:57;;;;;;;3.30;1.40;;;;;;;15.01;100.00;99866.27;109729;1249;59410;-71
2023/10/04 07:15:27;;;;;;;4.00;2.10;;;;;;;15.03;100.00;99863.91;109765;1249;66098;-72
2023/10/04 07:17:54;;;;;;;4.40;1.80;;;;;;;15.05;100.00;99861.81;109773;1251;61403;-70
2023/10/04 07:20:24;;;;;;;3.10;1.50;;;;;;;15.07;100.00;99860.98;109768;1250;64104;-70
2023/10/04 07:22:58;;;;;;;3.80;2.00;;;;;;;15.07;100.00;99862.95;109716;1250;59038;-70
2023/10/04 07:25:27;;;;;;;4.70;1.70;;;;;;;15.09;100.00;99861.02;109547;1254;58974;-71
2023/10/04 07:27:55;;;;;;;4.50;1.70;;;;;;;15.08;100.00;99863.90;109735;1249;64798;-70
2023/10/04 07:30:22;;;;;;;3.40;1.70;;;;;;;15.09;100.00;99869.40;109730;1251;60034;-71
2023/10/04 07:32:48;;;;;;;4.10;2.00;;;;;;;15.11;100.00;99871.21;109739;1251;62997;-71
2023/10/04 07:35:18;;;;;;;3.00;1.40;;;;;;;15.14;100.00;99869.23;109700;1250;58922;-71
2023/10/04 07:37:45;;;;;;;;;;;;;;;15.15;100.00;99869.86;109757;1250;58956;-70
2023/10/04 07:40:14;;;;;;;2.80;1.50;;;;;;;15.12;100.00;99867.05;109755;1250;64867;-70
2023/10/04 07:42:42;;;;;;;4.60;1.90;;;;;;;15.13;100.00;99865.18;109701;1250;61072;-71
2023/10/04 07:45:10;;;;;;;5.10;1.80;;;;;;;15.16;100.00;99868.35;109701;1250;65229;-71
2023/10/04 07:47:38;;;;;;;3.50;1.60;;;;;;;15.20;100.00;99866.31;109489;1250;59477;-71
2023/10/04 07:50:09;;;;;;;5.70;1.50;;;;;;;15.26;100.00;99868.72;109730;1251;59032;-70
2023/10/04 07:52:38;;;;;;;5.60;1.90;;;;;;;15.32;100.00;99870.09;109786;1250;65735;-71
2023/10/04 07:55:08;;;;;;;3.30;2.00;;;;;;;15.38;100.00;99872.52;109790;1249;60374;-70
2023/10/04 07:57:41;;;;;;;3.40;2.10;;;;;;;15.42;100.00;99874.70;109735;1250;64035;-71
2023/10/04 08:00:13;;;;;;;5.30;1.90;;;;;;;15.50;100.00;99872.50;109730;1251;58937;-71
2023/10/04 08:02:46;;;;;;;4.50;1.80;;;;;;;15.65;100.00;99876.63;109573;1251;59112;-71
2023/10/04 08:05:18;;;;;;;4.30;2.30;;;;;;;15.82;100.00;99873.79;109748;1250;67328;-71
2023/10/04 08:07:49;;;;;;;4.50;1.60;;;;;;;16.00;100.00;99873.31;109732;1251;59851;-71
2023/10/04 08:10:17;;;;;;;3.70;1.60;;;;;;;16.14;100.00;99876.59;109687;1249;63997;-71
2023/10/04 08:12:45;;;;;;;4.60;1.90;;;;;;;16.25;100.00;99881.65;109717;1251;59055;-71
2023/10/04 08:15:19;;;;;;;2.70;1.80;;;;;;;16.32;100.00;99884.52;109757;1250;59090;-71
2023/10/04 08:17:49;;;;;;;5.30;2.00;;;;;;;16.34;100.00;99891.02;109753;1250;74571;-71
2023/10/04 08:20:16;;;;;;;3.60;1.90;;;;;;;16.39;100.00;99893.33;109730;1249;59969;-71
2023/10/04 08:22:44;;;;;;;3.80;1.60;;;;;;;16.45;100.00;99898.58;109739;1249;63789;-71
2023/10/04 08:25:19;;;;;;;2.20;1.50;;;;;;;16.48;100.00;99903.77;109733;1250;58958;-71
2023/10/04 08:27:47;;;;;;;2.40;1.50;;;;;;;16.51;100.00;99906.89;109512;1250;59117;-71
2023/10/04 08:30:16;;;;;;;3.80;1.70;;;;;;;16.55;100.00;99903.73;109796;1249;66062;-71
2023/10/04 08:32:45;;;;;;;2.80;1.80;;;;;;;16.55;100.00;99908.56;109738;1250;59004;-72
2023/10/04 08:35:24;;;;;;;3.60;1.60;;;;;;;16.53;100.00;99911.78;109529;1250;62467;-72
2023/10/04 08:37:55;;;;;;;3.60;1.40;;;;;;;16.59;100.00;99912.71;109577;1250;58981;-71
2023/10/04 08:40:25;;;;;;;3.20;1.70;;;;;;;16.68;100.00;99914.20;109726;1250;59066;-71
2023/10/04 08:42:51;;;;;;;3.30;1.70;;;;;;;16.75;100.00;99909.73;109766;1249;64891;-71
2023/10/04 08:45:22;;;;;;;6.30;1.90;;;;;;;16.73;100.00;99910.98;109759;1249;61452;-72
2023/10/04 08:47:55;;;;;;;4.10;1.70;;;;;;;16.63;100.00;99911.71;109713;1250;64045;-71
2023/10/04 08:50:31;;;;;;;5.00;1.80;;;;;;;16.52;100.00;99911.54;109747;1250;59071;-71
2023/10/04 08:53:38;;;;;;;3.00;1.70;;;;;;;16.56;100.00;99911.40;109725;1249;58920;-71
2023/10/04 08:56:08;;;;;;;4.10;2.00;;;;;;;16.69;100.00;99905.88;108944;1257;64923;-71
2023/10/04 08:58:35;;;;;;;3.60;1.60;;;;;;;16.88;100.00;99903.18;109060;1257;60190;-71
2023/10/04 09:01:06;;;;;;;3.40;1.60;;;;;;;17.04;100.00;99899.73;108930;1257;63707;-71
2023/10/04 09:03:35;;;;;;;6.40;1.60;;;;;;;17.13;100.00;99899.91;109026;1257;59250;-71
2023/10/04 09:06:05;;;;;;;3.20;1.50;;;;;;;17.22;100.00;99894.20;109063;1257;58963;-71
2023/10/04 09:08:31;;;;;;;4.10;1.50;;;;;;;17.33;100.00;99891.67;109055;1256;64503;-71
2023/10/04 09:10:58;;;;;;;2.50;1.50;;;;;;;17.46;100.00;99886.00;108896;1257;60169;-71
2023/10/04 09:13:24;;;;;;;3.60;1.60;;;;;;;17.50;100.00;99889.77;109064;1257;64198;-71
2023/10/04 09:15:51;;;;;;;4.20;1.60;;;;;;;17.56;100.00;99888.95;109090;1256;59063;-71
2023/10/04 09:18:25;;;;;;;3.10;1.40;;;;;;;17.55;100.00;99885.38;109079;1257;59060;-71
2023/10/04 09:20:52;;;;;;;4.80;1.60;;;;;;;17.58;100.00;99882.99;109096;1256;66091;-71
2023/10/04 09:23:22;;;;;;;4.20;1.90;;;;;;;17.66;100.00;99885.92;109122;1256;60345;-71
2023/10/04 09:25:49;;;;;;;;;;;;;;;17.72;100.00;99886.68;109044;1257;62850;-71
2023/10/04 09:28:15;;;;;;;3.60;1.70;;;;;;;17.80;100.00;99887.54;109078;1257;59104;-71
2023/10/04 09:30:42;;;;;;;2.30;1.50;;;;;;;17.91;100.00;99890.59;109121;1257;58917;-71
2023/10/04 09:33:28;;;;;;;4.20;1.70;;;;;;;18.07;100.00;99885.28;109433;1249;67235;-71
2023/10/04 09:35:55;;;;;;;3.60;1.90;;;;;;;18.16;100.00;99883.66;109758;1249;59826;-71
2023/10/04 09:38:22;;;;;;;2.70;1.50;;;;;;;18.23;100.00;99884.69;109791;1250;62906;-71
2023/10/04 09:40:54;;;;;;;2.90;1.50;;;;;;;18.32;100.00;99882.79;109744;1249;59038;-71
2023/10/04 09:43:37;;;;;;;2.20;1.40;;;;;;;18.30;100.00;99879.26;109790;1249;59026;-71
2023/10/04 09:46:07;;;;;;;5.20;1.60;;;;;;;18.19;100.00;99875.96;109776;1249;65758;-72
2023/10/04 09:48:45;;;;;;;3.70;1.90;;;;;;;18.25;100.00;99873.92;109786;1249;60163;-71
2023/10/04 09:51:13;;;;;;;2.80;1.70;;;;;;;18.42;100.00;99871.13;109742;1249;62918;-71
2023/10/04 09:53:41;;;;;;;4.90;1.90;;;;;;;18.63;100.00;99872.45;109519;1249;59481;-71
2023/10/04 09:56:11;;;;;;;3.30;1.60;;;;;;;18.67;100.00;99866.88;109748;1249;59000;-72
2023/10/04 09:58:47;;;;;;;2.90;1.40;;;;;;;18.45;100.00;99869.61;109763;1249;64846;-72
2023/10/04 10:01:15;;;;;;;3.00;1.30;;;;;;;18.27;100.00;99868.85;109757;1249;59933;-71
2023/10/04 10:03:51;;;;;;;3.20;1.90;;;;;;;18.26;100.00;99870.55;109697;1249;64970;-72
2023/10/04 10:06:22;;;;;;;3.00;1.40;;;;;;;18.33;100.00;99870.33;109746;1249;58968;-71
2023/10/04 10:08:53;;;;;;;2.40;1.30;;;;;;;18.38;100.00;99870.23;109561;1250;58980;-71
2023/10/04 10:11:20;;;;;;;3.50;1.40;;;;;;;18.31;100.00;99868.01;109705;1250;66090;-72
2023/10/04 10:13:49;;;;;;;2.90;1.20;;;;;;;18.18;100.00;99866.38;109768;1249;59230;-72
2023/10/04 10:16:19;;;;;;;4.10;1.30;;;;;;;18.02;100.00;99865.23;109762;1249;64097;-72
2023/10/04 10:18:47;;;;;;;;;;;;;;;17.99;100.00;99863.10;109488;1249;59511;-72
2023/10/04 10:21:13;;;;;;;2.40;1.30;;;;;;;17.97;100.00;99862.36;109749;1250;59050;-71
2023/10/04 10:23:56;;;;;;;5.30;1.70;;;;;;;17.90;100.00;99868.52;109753;1249;65277;-71
2023/10/04 10:26:23;;;;;;;3.50;1.30;;;;;;;17.95;100.00;99865.96;109743;1249;59853;-71
2023/10/04 10:29:04;;;;;;;3.10;1.60;;;;;;;18.02;100.00;99858.87;109760;1250;63717;-71
2023/10/04 10:31:32;;;;;;;2.70;1.10;;;;;;;18.20;100.00;99857.19;109777;1249;59083;-72
2023/10/04 10:33:59;;;;;;;6.20;4.60;;;;;;;18.46;100.00;99860.16;109811;1249;59038;-72
2023/10/04 10:36:27;;;;;;;2.80;1.50;;;;;;;18.60;100.00;99862.04;109754;1249;65717;-72
2023/10/04 10:38:54;;;;;;;1.40;1.10;;;;;;;18.64;100.00;99867.69;109780;1249;60339;-71
2023/10/04 10:41:34;;;;;;;2.50;1.40;;;;;;;18.61;100.00;99868.27;109744;1249;62825;-72
2023/10/04 10:44:13;;;;;;;;;;;;;;;18.68;100.00;99866.77;109748;1249;58953;-71
2023/10/04 10:46:55;;;;;;;3.10;1.30;;;;;;;18.96;100.00;99866.16;109757;1249;59040;-71
2023/10/04 10:49:41;;;;;;;1.40;1.30;;;;;;;19.20;100.00;99869.45;109783;1249;65716;-71
2023/10/04 10:52:26;;;;;;;2.40;1.00;;;;;;;19.37;100.00;99866.33;109773;1249;60027;-70
2023/10/04 10:54:54;;;;;;;2.50;1.10;;;;;;;19.51;100.00;99861.46;109712;1249;63768;-71
2023/10/04 10:57:22;;;;;;;2.80;1.90;;;;;;;19.49;100.00;99859.95;109503;1249;58994;-71
2023/10/04 10:59:51;;;;;;;2.90;1.90;;;;;;;19.50;100.00;99856.59;109814;1249;58952;-71
2023/10/04 11:02:17;;;;;;;3.00;1.50;;;;;;;19.55;100.00;99857.25;109785;1249;65082;-73
2023/10/04 11:04:44;;;;;;;2.50;1.70;;;;;;;19.55;100.00;99856.54;109771;1249;60156;-71
2023/10/04 11:07:11;;;;;;;2.20;1.30;;;;;;;19.59;100.00;99858.69;109758;1249;62822;-71
2023/10/04 11:09:42;;;;;;;3.10;1.10;;;;;;;19.69;100.00;99856.20;109718;1249;59015;-71
2023/10/04 11:12:10;;;;;;;1.60;1.00;;;;;;;19.70;100.00;99856.48;109828;1249;61490;-71
2023/10/04 11:14:36;;;;;;;3.10;1.20;;;;;;;19.64;100.00;99856.63;109775;1249;64827;-72
2023/10/04 11:17:06;;;;;;;2.10;1.30;;;;;;;19.74;100.00;99851.42;109564;1249;59094;-70
2023/10/04 11:19:34;;;;;;;2.80;1.20;;;;;;;19.86;100.00;99848.16;109752;1249;64128;-71
2023/10/04 11:22:02;;;;;;;4.50;1.40;;;;;;;19.81;100.00;99847.91;109772;1250;59022;-71
2023/10/04 11:24:30;;;;;;;1.50;1.30;;;;;;;19.70;100.00;99846.58;109784;1249;58954;-71
2023/10/04 11:26:57;;;;;;;5.20;1.50;;;;;;;19.63;100.00;99845.92;109804;1249;64915;-71
2023/10/04 11:29:26;;;;;;;3.10;1.90;;;;;;;19.62;100.00;99845.27;109771;1249;61411;-71